createdAt,value
2023-02-18T00:00:24.660Z,20.55
2023-02-18T00:02:58.678Z,17.60
2023-02-18T00:05:29.248Z,18.73
2023-02-18T00:08:01.964Z,19.08
2023-02-18T00:10:33.242Z,22.35
2023-02-18T00:13:02.223Z,21.13
2023-02-18T00:15:35.521Z,18.92
2023-02-18T00:18:05.228Z,21.58
2023-02-18T00:20:39.215Z,18.80
2023-02-18T00:23:09.255Z,20.67
2023-02-18T00:25:38.610Z,19.42
2023-02-18T00:28:09.777Z,20.40
2023-02-18T00:30:46.202Z,18.65
2023-02-18T00:33:15.372Z,18.98
2023-02-18T00:35:50.795Z,17.80
2023-02-18T00:38:22.178Z,15.32
2023-02-18T00:40:56.393Z,20.23
2023-02-18T00:43:28.257Z,21.92
2023-02-18T00:45:57.320Z,21.88
2023-02-18T00:48:28.459Z,18.77
2023-02-18T00:51:01.240Z,22.17
2023-02-18T00:53:40.754Z,22.67
2023-02-18T00:56:14.197Z,20.92
2023-02-18T00:58:49.894Z,22.70
2023-02-18T01:01:26.427Z,22.02
2023-02-18T01:04:01.425Z,23.75
2023-02-18T01:06:33.874Z,18.42
2023-02-18T01:09:10.211Z,20.15
2023-02-18T01:11:43.790Z,20.60
2023-02-18T01:14:12.827Z,20.30
2023-02-18T01:16:44.479Z,24.17
2023-02-18T01:19:18.290Z,27.17
2023-02-18T01:21:49.448Z,26.77
2023-02-18T01:24:19.654Z,26.35
2023-02-18T01:26:51.747Z,25.00
2023-02-18T01:29:21.324Z,23.65
2023-02-18T01:31:50.517Z,23.00
2023-02-18T01:34:19.560Z,29.90
2023-02-18T01:36:48.346Z,24.63
2023-02-18T01:39:22.114Z,28.27
2023-02-18T01:41:54.367Z,28.05
2023-02-18T01:44:27.710Z,25.65
2023-02-18T01:47:00.434Z,25.95
2023-02-18T01:49:39.553Z,29.33
2023-02-18T01:52:25.891Z,25.88
2023-02-18T01:54:58.312Z,28.30
2023-02-18T01:57:39.702Z,23.35
2023-02-18T02:00:16.272Z,24.25
2023-02-18T02:02:50.765Z,27.15
2023-02-18T02:05:23.342Z,29.77
2023-02-18T02:07:55.882Z,26.83
2023-02-18T02:10:50.920Z,27.50
2023-02-18T02:13:31.208Z,25.77
2023-02-18T02:16:11.902Z,25.73
2023-02-18T02:19:25.307Z,30.50
2023-02-18T02:22:05.694Z,26.17
2023-02-18T02:25:10.623Z,26.77
2023-02-18T02:28:05.415Z,26.63
2023-02-18T02:30:48.777Z,21.13
2023-02-18T02:33:57.844Z,28.15
2023-02-18T02:36:39.768Z,26.92
2023-02-18T02:39:30.009Z,25.40
2023-02-18T02:42:18.274Z,26.63
2023-02-18T02:45:31.798Z,23.13
2023-02-18T02:48:38.478Z,27.98
2023-02-18T02:51:41.163Z,24.52
2023-02-18T02:54:19.126Z,26.58
2023-02-18T02:57:08.363Z,27.20
2023-02-18T02:59:43.897Z,26.02
2023-02-18T03:02:55.556Z,25.08
2023-02-18T03:05:45.102Z,24.23
2023-02-18T03:08:46.035Z,28.48
2023-02-18T03:11:21.044Z,25.60
2023-02-18T03:14:16.767Z,23.35
2023-02-18T03:16:50.150Z,29.38
2023-02-18T03:19:43.526Z,26.20
2023-02-18T03:22:27.820Z,30.77
2023-02-18T03:25:00.856Z,28.05
2023-02-18T03:27:45.200Z,25.42
2023-02-18T03:30:40.981Z,25.33
2023-02-18T03:33:17.122Z,24.73
2023-02-18T03:35:57.246Z,27.90
2023-02-18T03:38:36.474Z,26.92
2023-02-18T03:41:08.319Z,29.60
2023-02-18T03:43:42.233Z,30.30
2023-02-18T03:46:15.314Z,27.98
2023-02-18T03:48:52.284Z,30.23
2023-02-18T03:51:25.536Z,29.63
2023-02-18T03:53:54.649Z,25.23
2023-02-18T03:56:28.912Z,28.20
2023-02-18T03:59:03.491Z,28.30
2023-02-18T04:01:37.120Z,29.58
2023-02-18T04:04:09.698Z,30.35
2023-02-18T04:06:38.601Z,23.65
2023-02-18T04:09:09.759Z,23.73
2023-02-18T04:11:44.279Z,27.05
2023-02-18T04:14:20.174Z,32.42
2023-02-18T04:16:51.800Z,26.95
2023-02-18T04:19:23.206Z,26.40
2023-02-18T04:21:54.580Z,28.73
2023-02-18T04:24:26.297Z,31.05
2023-02-18T04:26:58.498Z,28.48
2023-02-18T04:29:29.842Z,29.77
2023-02-18T04:32:02.262Z,27.85
2023-02-18T04:34:33.989Z,30.85
2023-02-18T04:37:05.291Z,35.38
2023-02-18T04:39:40.145Z,32.42
2023-02-18T04:42:10.786Z,31.40
2023-02-18T04:44:41.979Z,32.17
2023-02-18T04:47:15.295Z,31.38
2023-02-18T04:49:46.598Z,33.63
2023-02-18T04:52:15.446Z,32.85
2023-02-18T04:54:44.222Z,30.88
2023-02-18T04:57:20.186Z,33.50
2023-02-18T04:59:51.453Z,33.47
2023-02-18T05:02:23.305Z,28.75
2023-02-18T05:04:58.099Z,29.15
2023-02-18T05:07:30.111Z,33.70
2023-02-18T05:10:02.222Z,29.20
2023-02-18T05:12:31.470Z,34.35
2023-02-18T05:15:02.751Z,35.30
2023-02-18T05:17:31.717Z,30.50
2023-02-18T05:20:03.851Z,35.83
2023-02-18T05:22:36.034Z,32.72
2023-02-18T05:25:12.570Z,32.75
2023-02-18T05:27:46.258Z,28.40
2023-02-18T05:30:19.723Z,31.88
2023-02-18T05:32:48.667Z,33.60
2023-02-18T05:35:20.511Z,35.10
2023-02-18T05:37:53.040Z,32.60
2023-02-18T05:40:22.160Z,30.88
2023-02-18T05:42:51.101Z,32.25
2023-02-18T05:45:22.476Z,40.58
2023-02-18T05:47:58.324Z,40.70
2023-02-18T05:50:35.375Z,36.22
2023-02-18T05:53:11.293Z,36.83
2023-02-18T05:55:46.443Z,32.75
2023-02-18T05:58:21.223Z,43.50
2023-02-18T06:00:53.236Z,38.58
2023-02-18T06:03:24.560Z,36.17
2023-02-18T06:05:56.488Z,37.95
2023-02-18T06:08:28.072Z,35.67
2023-02-18T06:10:59.684Z,33.90
2023-02-18T06:13:30.818Z,42.65
2023-02-18T06:15:59.800Z,34.63
2023-02-18T06:18:28.793Z,34.80
2023-02-18T06:20:57.760Z,34.80
2023-02-18T06:23:31.716Z,39.95
2023-02-18T06:26:06.545Z,35.30
2023-02-18T06:28:35.644Z,36.58
2023-02-18T06:31:06.587Z,34.92
2023-02-18T06:33:38.265Z,36.83
2023-02-18T06:36:12.150Z,33.63
2023-02-18T06:38:43.592Z,36.80
2023-02-18T06:41:15.299Z,33.67
2023-02-18T06:43:50.160Z,35.33
2023-02-18T06:46:21.466Z,31.80
2023-02-18T06:48:55.717Z,35.83
2023-02-18T06:51:28.215Z,32.30
2023-02-18T06:53:57.531Z,34.90
2023-02-18T06:56:31.498Z,35.22
2023-02-18T06:59:08.770Z,33.13
2023-02-18T07:01:40.382Z,33.40
2023-02-18T07:04:11.685Z,35.78
2023-02-18T07:06:42.771Z,32.97
2023-02-18T07:09:14.687Z,33.35
2023-02-18T07:11:53.863Z,32.05
2023-02-18T07:14:25.302Z,35.20
2023-02-18T07:16:58.558Z,33.78
2023-02-18T07:19:30.486Z,29.90
2023-02-18T07:22:02.064Z,34.88
2023-02-18T07:24:33.015Z,32.90
2023-02-18T07:27:04.936Z,29.85
2023-02-18T07:29:33.868Z,35.42
2023-02-18T07:32:08.058Z,31.67
2023-02-18T07:34:39.128Z,34.67
2023-02-18T07:37:09.921Z,32.80
2023-02-18T07:39:44.473Z,36.85
2023-02-18T07:42:14.747Z,32.60
2023-02-18T07:44:51.578Z,32.45
2023-02-18T07:47:28.044Z,34.60
2023-02-18T07:49:59.462Z,34.70
2023-02-18T07:52:31.414Z,37.75
2023-02-18T07:55:02.776Z,38.55
2023-02-18T07:57:56.376Z,37.90
2023-02-18T08:00:29.886Z,36.22
2023-02-18T08:03:01.473Z,37.28
2023-02-18T08:05:31.248Z,31.30
2023-02-18T08:08:00.538Z,34.35
2023-02-18T08:10:30.727Z,36.35
2023-02-18T08:13:04.982Z,34.97
2023-02-18T08:15:37.394Z,34.97
2023-02-18T08:18:30.619Z,36.10
2023-02-18T08:21:04.544Z,38.40
2023-02-18T08:23:33.802Z,35.13
2023-02-18T08:26:07.623Z,35.33
2023-02-18T08:28:45.457Z,31.25
2023-02-18T08:31:23.710Z,35.90
2023-02-18T08:33:57.652Z,30.67
2023-02-18T08:36:32.256Z,33.92
2023-02-18T08:39:03.415Z,33.67
2023-02-18T08:41:38.192Z,32.85
2023-02-18T08:44:13.030Z,29.30
2023-02-18T08:46:49.522Z,29.10
2023-02-18T08:49:24.675Z,30.42
2023-02-18T08:52:01.867Z,29.02
2023-02-18T08:54:31.836Z,29.05
2023-02-18T08:57:07.144Z,28.15
2023-02-18T08:59:36.393Z,29.35
2023-02-18T09:02:06.295Z,27.05
2023-02-18T09:04:35.518Z,24.92
2023-02-18T09:07:06.561Z,27.17
2023-02-18T09:09:36.537Z,28.80
2023-02-18T09:12:08.158Z,29.77
2023-02-18T09:14:44.687Z,28.50
2023-02-18T09:17:16.155Z,24.13
2023-02-18T09:19:53.767Z,24.33
2023-02-18T09:22:23.188Z,25.38
2023-02-18T09:25:00.487Z,28.02
2023-02-18T09:27:34.508Z,24.00
2023-02-18T09:30:07.247Z,25.42
2023-02-18T09:32:37.345Z,23.05
2023-02-18T09:35:09.581Z,30.20
2023-02-18T09:37:47.300Z,25.83
2023-02-18T09:40:30.290Z,31.33
2023-02-18T09:43:05.244Z,27.30
2023-02-18T09:45:35.148Z,22.73
2023-02-18T09:48:06.264Z,26.40
2023-02-18T09:50:38.996Z,25.40
2023-02-18T09:53:21.043Z,27.65
2023-02-18T09:55:54.439Z,27.63
2023-02-18T09:58:32.470Z,25.23
2023-02-18T10:01:07.130Z,24.00
2023-02-18T10:03:39.092Z,25.33
2023-02-18T10:06:40.799Z,23.92
2023-02-18T10:09:29.214Z,23.38
2023-02-18T10:12:22.866Z,27.55
2023-02-18T10:15:01.806Z,28.88
2023-02-18T10:17:34.610Z,31.15
2023-02-18T10:20:09.474Z,26.67
2023-02-18T10:22:39.931Z,21.92
2023-02-18T10:25:21.579Z,25.65
2023-02-18T10:27:53.209Z,27.73
2023-02-18T10:30:43.620Z,25.25
2023-02-18T10:33:31.745Z,26.15
2023-02-18T10:36:28.670Z,23.75
2023-02-18T10:39:17.184Z,23.05
2023-02-18T10:41:51.195Z,24.17
2023-02-18T10:44:58.493Z,21.95
2023-02-18T10:47:51.443Z,23.10
2023-02-18T10:50:44.176Z,42.80
2023-02-18T10:53:36.948Z,27.33
2023-02-18T10:56:41.864Z,25.02
2023-02-18T10:59:28.105Z,25.00
2023-02-18T11:02:19.991Z,24.90
2023-02-18T11:04:52.581Z,24.40
2023-02-18T11:07:32.505Z,21.40
2023-02-18T11:10:30.408Z,23.90
2023-02-18T11:13:03.519Z,19.88
2023-02-18T11:15:39.370Z,24.40
2023-02-18T11:18:33.306Z,23.33
2023-02-18T11:21:21.413Z,24.25
2023-02-18T11:23:55.191Z,21.10
2023-02-18T11:26:31.251Z,26.83
2023-02-18T11:29:22.172Z,26.33
2023-02-18T11:32:20.697Z,22.73
2023-02-18T11:35:26.377Z,20.80
2023-02-18T11:40:33.622Z,20.30
2023-02-18T11:43:17.329Z,21.95
2023-02-18T11:45:47.606Z,21.90
2023-02-18T11:48:30.042Z,24.67
2023-02-18T11:51:07.155Z,20.25
2023-02-18T11:53:56.639Z,25.85
2023-02-18T11:56:28.230Z,21.63
2023-02-18T11:59:03.095Z,26.83
2023-02-18T12:01:45.439Z,22.83
2023-02-18T12:04:25.012Z,21.75
2023-02-18T12:07:40.400Z,18.75
2023-02-18T12:10:33.215Z,21.83
2023-02-18T12:13:16.440Z,25.38
2023-02-18T12:16:24.605Z,29.58
2023-02-18T12:19:15.352Z,30.50
2023-02-18T12:22:10.960Z,24.85
2023-02-18T12:25:11.336Z,20.80
2023-02-18T12:28:12.858Z,24.52
2023-02-18T12:33:39.252Z,24.83
2023-02-18T12:36:28.931Z,23.40
2023-02-18T12:39:23.528Z,27.83
2023-02-18T12:42:28.642Z,27.70
2023-02-18T12:45:05.213Z,29.70
2023-02-18T12:48:08.317Z,26.35
2023-02-18T12:50:56.335Z,25.42
2023-02-18T12:53:41.023Z,25.50
2023-02-18T12:56:32.128Z,23.38
2023-02-18T12:59:24.278Z,27.10
2023-02-18T13:02:36.732Z,23.92
2023-02-18T13:05:15.130Z,28.35
2023-02-18T13:08:07.771Z,22.88
2023-02-18T13:11:01.424Z,24.42
2023-02-18T13:13:46.112Z,25.67
2023-02-18T13:16:20.841Z,28.90
2023-02-18T13:19:22.845Z,26.80
2023-02-18T13:21:56.949Z,24.88
2023-02-18T13:24:44.409Z,25.10
2023-02-18T13:27:42.033Z,21.83
2023-02-18T13:30:29.750Z,20.92
2023-02-18T13:33:27.806Z,21.55
2023-02-18T13:36:33.589Z,23.30
2023-02-18T13:39:11.398Z,28.60
2023-02-18T13:41:46.450Z,25.13
2023-02-18T13:44:26.979Z,25.45
2023-02-18T13:47:01.676Z,26.35
2023-02-18T13:49:41.856Z,25.67
2023-02-18T13:52:22.515Z,22.60
2023-02-18T13:54:52.358Z,22.15
2023-02-18T13:57:27.083Z,20.25
2023-02-18T14:00:04.974Z,20.90
2023-02-18T14:02:37.124Z,23.77
2023-02-18T14:05:54.923Z,24.10
2023-02-18T14:08:40.485Z,21.42
2023-02-18T14:11:15.801Z,26.58
2023-02-18T14:13:56.630Z,29.40
2023-02-18T14:16:26.468Z,20.27
2023-02-18T14:19:00.297Z,21.67
2023-02-18T14:21:48.040Z,22.35
2023-02-18T14:24:51.245Z,22.30
2023-02-18T14:27:25.413Z,20.13
2023-02-18T14:29:55.572Z,21.05
2023-02-18T14:32:27.494Z,23.85
2023-02-18T14:35:28.983Z,25.35
2023-02-18T14:38:33.040Z,19.90
2023-02-18T14:41:32.732Z,27.38
2023-02-18T14:44:39.966Z,22.30
2023-02-18T14:47:24.021Z,23.30
2023-02-18T14:49:55.140Z,22.83
2023-02-18T14:52:41.565Z,18.75
2023-02-18T14:55:25.045Z,20.50
2023-02-18T14:58:11.760Z,23.70
2023-02-18T15:00:45.453Z,28.60
2023-02-18T15:03:19.985Z,20.38
2023-02-18T15:05:52.084Z,23.02
2023-02-18T15:11:02.206Z,22.50
2023-02-18T15:13:45.283Z,26.15
2023-02-18T15:16:31.919Z,20.48
2023-02-18T15:19:08.391Z,20.73
2023-02-18T15:21:44.946Z,23.85
2023-02-18T15:24:34.537Z,22.23
2023-02-18T15:27:13.052Z,21.83
2023-02-18T15:29:57.692Z,23.10
2023-02-18T15:32:29.984Z,24.42
2023-02-18T15:35:03.616Z,25.08
2023-02-18T15:37:37.326Z,20.35
2023-02-18T15:40:18.545Z,22.83
2023-02-18T15:42:53.690Z,25.50
2023-02-18T15:45:48.027Z,25.63
2023-02-18T15:48:49.549Z,25.55
2023-02-18T15:51:28.611Z,23.63
2023-02-18T15:54:07.346Z,24.10
2023-02-18T15:56:43.102Z,21.02
2023-02-18T15:59:22.110Z,22.80
2023-02-18T16:02:00.345Z,22.90
2023-02-18T16:04:38.700Z,25.35
2023-02-18T16:07:33.991Z,26.92
2023-02-18T16:10:20.110Z,20.65
2023-02-18T16:13:05.744Z,27.60
2023-02-18T16:15:44.143Z,22.00
2023-02-18T16:18:36.869Z,24.48
2023-02-18T16:21:34.510Z,29.73
2023-02-18T16:24:29.985Z,22.58
2023-02-18T16:27:01.957Z,23.88
2023-02-18T16:29:43.810Z,26.60
2023-02-18T16:32:13.932Z,23.15
2023-02-18T16:34:49.291Z,23.73
2023-02-18T16:37:41.300Z,25.67
2023-02-18T16:40:36.128Z,22.50
2023-02-18T16:43:28.260Z,26.05
2023-02-18T16:46:06.569Z,21.67
2023-02-18T16:48:52.643Z,27.08
2023-02-18T16:51:36.753Z,22.15
2023-02-18T16:54:07.771Z,23.20
2023-02-18T16:56:38.372Z,23.38
2023-02-18T16:59:13.736Z,23.23
2023-02-18T17:01:46.897Z,26.02
2023-02-18T17:04:20.754Z,19.23
2023-02-18T17:06:57.280Z,26.25
2023-02-18T17:09:34.415Z,26.55
2023-02-18T17:12:06.793Z,21.08
2023-02-18T17:14:38.662Z,21.35
2023-02-18T17:17:18.592Z,21.52
2023-02-18T17:19:52.216Z,19.10
2023-02-18T17:22:22.560Z,23.48
2023-02-18T17:27:39.419Z,21.63
2023-02-18T17:30:10.261Z,25.70
2023-02-18T17:32:41.420Z,24.75
2023-02-18T17:35:24.318Z,19.52
2023-02-18T17:37:57.676Z,17.75
2023-02-18T17:40:31.968Z,20.80
2023-02-18T17:43:07.596Z,21.90
2023-02-18T17:46:06.585Z,19.13
2023-02-18T17:48:44.705Z,24.33
2023-02-18T17:51:39.525Z,29.70
2023-02-18T17:54:23.172Z,24.27
2023-02-18T17:57:10.280Z,24.52
2023-02-18T17:59:49.433Z,25.38
2023-02-18T18:02:30.095Z,27.80
2023-02-18T18:05:07.987Z,19.25
2023-02-18T18:07:42.616Z,19.50
2023-02-18T18:10:21.348Z,21.20
2023-02-18T18:13:19.041Z,27.02
2023-02-18T18:15:58.190Z,21.20
2023-02-18T18:18:33.442Z,23.10
2023-02-18T18:21:08.786Z,22.95
2023-02-18T18:23:49.349Z,21.40
2023-02-18T18:26:22.262Z,23.85
2023-02-18T18:28:56.889Z,24.23
2023-02-18T18:31:40.390Z,25.42
2023-02-18T18:34:12.342Z,24.48
2023-02-18T18:36:49.062Z,23.15
2023-02-18T18:39:26.622Z,20.52
2023-02-18T18:42:03.853Z,26.95
2023-02-18T18:44:38.805Z,24.00
2023-02-18T18:47:13.421Z,25.02
2023-02-18T18:49:53.326Z,24.52
2023-02-18T18:52:30.793Z,24.30
2023-02-18T18:55:33.357Z,27.52
2023-02-18T18:58:11.605Z,24.20
2023-02-18T19:00:44.606Z,33.22
2023-02-18T19:03:19.919Z,23.77
2023-02-18T19:05:56.124Z,24.48
2023-02-18T19:08:34.796Z,25.95
2023-02-18T19:11:12.290Z,19.38
2023-02-18T19:13:47.040Z,18.33
2023-02-18T19:16:47.051Z,25.40
2023-02-18T19:19:25.552Z,26.95
2023-02-18T19:27:44.033Z,24.88
2023-02-18T19:30:18.932Z,23.60
2023-02-18T19:33:00.601Z,23.23
2023-02-18T19:35:54.232Z,30.15
2023-02-18T19:38:31.374Z,28.85
2023-02-18T19:41:20.537Z,27.65
2023-02-18T19:43:55.292Z,25.13
2023-02-18T19:46:28.102Z,23.00
2023-02-18T19:49:01.678Z,25.48
2023-02-18T19:51:32.954Z,24.10
2023-02-18T19:54:03.941Z,28.08
2023-02-18T19:56:50.021Z,22.30
2023-02-18T19:59:24.099Z,23.20
2023-02-18T20:01:59.730Z,23.38
2023-02-18T20:04:32.867Z,22.45
2023-02-18T20:07:05.424Z,27.42
2023-02-18T20:09:40.000Z,34.00
2023-02-18T20:12:12.388Z,21.90
2023-02-18T20:14:46.244Z,21.80
2023-02-18T20:17:16.344Z,26.70
2023-02-18T20:19:52.547Z,20.17
2023-02-18T20:22:22.911Z,17.83
2023-02-18T20:24:53.646Z,19.80
2023-02-18T20:27:24.264Z,17.15
2023-02-18T20:29:56.868Z,19.73
2023-02-18T20:32:27.964Z,20.75
2023-02-18T20:34:58.153Z,21.95
2023-02-18T20:37:30.249Z,19.95
2023-02-18T20:40:03.053Z,22.67
2023-02-18T20:42:39.478Z,24.95
2023-02-18T20:45:15.695Z,29.10
2023-02-18T20:47:47.712Z,26.65
2023-02-18T20:50:17.312Z,29.58
2023-02-18T20:52:49.613Z,26.33
2023-02-18T20:55:18.711Z,27.55
2023-02-18T20:57:48.065Z,24.45
2023-02-18T21:00:23.161Z,22.05
2023-02-18T21:02:57.368Z,21.60
2023-02-18T21:05:27.103Z,25.73
2023-02-18T21:07:59.147Z,21.88
2023-02-18T21:10:33.675Z,23.38
2023-02-18T21:13:07.508Z,24.45
2023-02-18T21:15:44.507Z,22.05
2023-02-18T21:18:19.298Z,23.35
2023-02-18T21:21:11.338Z,27.10
2023-02-18T21:23:46.551Z,29.90
2023-02-18T21:26:21.485Z,26.38
2023-02-18T21:28:54.055Z,27.38
2023-02-18T21:31:31.821Z,24.65
2023-02-18T21:34:08.063Z,24.30
2023-02-18T21:36:42.007Z,24.27
2023-02-18T21:39:13.194Z,32.38
2023-02-18T21:41:45.443Z,27.98
2023-02-18T21:44:14.670Z,21.73
2023-02-18T21:46:44.187Z,23.35
2023-02-18T21:49:13.915Z,22.17
2023-02-18T21:52:00.761Z,23.73
2023-02-18T21:54:34.043Z,31.60
2023-02-18T21:57:04.818Z,21.45
2023-02-18T21:59:37.896Z,22.48
2023-02-18T22:02:15.945Z,21.42
2023-02-18T22:04:47.885Z,19.58
2023-02-18T22:07:22.627Z,20.58
2023-02-18T22:09:57.232Z,24.38
2023-02-18T22:12:32.482Z,24.17
2023-02-18T22:15:01.461Z,20.52
2023-02-18T22:17:36.137Z,21.25
2023-02-18T22:20:09.479Z,24.88
2023-02-18T22:22:44.148Z,22.48
2023-02-18T22:25:13.157Z,23.50
2023-02-18T22:27:45.397Z,22.17
2023-02-18T22:30:14.589Z,23.83
2023-02-18T22:32:49.444Z,19.75
2023-02-18T22:35:21.094Z,18.45
2023-02-18T22:37:52.409Z,21.38
2023-02-18T22:40:24.012Z,23.05
2023-02-18T22:42:55.515Z,22.00
2023-02-18T22:45:28.711Z,24.83
2023-02-18T22:48:00.440Z,25.40
2023-02-18T22:50:29.389Z,21.75
2023-02-18T22:53:05.233Z,23.60
2023-02-18T22:55:34.292Z,26.17
2023-02-18T22:58:04.428Z,25.58
2023-02-18T23:00:34.088Z,32.15
2023-02-18T23:03:03.127Z,25.90
2023-02-18T23:05:35.073Z,29.52
2023-02-18T23:08:06.049Z,28.75
2023-02-18T23:10:35.179Z,28.05
2023-02-18T23:13:04.072Z,25.55
2023-02-18T23:15:32.661Z,22.90
2023-02-18T23:18:04.533Z,23.83
2023-02-18T23:20:52.326Z,23.65
2023-02-18T23:23:26.241Z,27.45
2023-02-18T23:26:02.052Z,26.83
2023-02-18T23:28:48.027Z,22.58
2023-02-18T23:31:22.736Z,25.48
2023-02-18T23:33:58.042Z,26.83
2023-02-18T23:36:32.830Z,31.63
2023-02-18T23:39:05.432Z,23.25
2023-02-18T23:41:37.128Z,25.50
2023-02-18T23:44:15.223Z,24.42
2023-02-18T23:46:47.262Z,27.92
2023-02-18T23:49:18.166Z,28.48
2023-02-18T23:51:47.569Z,25.20
2023-02-18T23:54:18.460Z,28.20
2023-02-18T23:56:48.434Z,25.55
2023-02-18T23:59:19.540Z,29.02
